Romoe Maersk — OXLC2 — position and weather

sailwx.info

Track history (hours):
 
Tides and Currents Weather Stations Pressure Air Temp Water Temp Dewpoint Dewpoint Depression Visibility Wind Speed Wind Dir Waves Ship Positions

Romoe Maersk

Last reported at 2015-May-18 21:21 UTC. Time now 2015-Jul-28 10:19 UTC.
Position N 20°44' W 017°01'.
Warning: this ship's position is months out of date.

Length 171 m; draft 10.6 m.

Type: Ship. MMSI: 220209000.

Date/timePositionNaut miles runAvg speedWind from/ knotsBaromVisibWave heightAir tempDewpointWater temp
2015-May-18 21:21N 20°44' W 017°01'0 0.0
2015-May-17 23:26N 20°44' W 017°01'37 7.6
2015-May-17 18:33N 21°10' W 017°29'1512.4
2015-May-17 17:22N 21°24' W 017°33'3812.2
2015-May-17 14:14N 22°03' W 017°29'1412.0
2015-May-17 13:04N 22°16' W 017°26'611.6
2015-May-17 12:33N 22°22' W 017°25'5711.4
2015-May-17 07:33N 23°19' W 017°15'2611.2
2015-May-17 05:17N 23°44' W 017°11'36011.5
2015-May-15 22:07N 29°27' W 015°11'1111.7
2015-May-15 21:13N 29°38' W 015°08'811.7
2015-May-15 20:31N 29°45' W 015°06'1212.0
2015-May-15 19:33N 29°57' W 015°02'1211.6
2015-May-15 18:33N 30°08' W 014°59'1111.4
2015-May-15 17:33N 30°19' W 014°56'1211.6
2015-May-15 16:32N 30°30' W 014°52'1211.8
2015-May-15 15:30N 30°42' W 014°49'1111.6
2015-May-15 14:33N 30°53' W 014°46'1111.4
2015-May-15 13:33N 31°04' W 014°43'1711.2
2015-May-15 12:03N 31°20' W 014°38'711.2
2015-May-15 11:27N 31°27' W 014°36'1011.7
2015-May-15 10:33N 31°37' W 014°33'1311.7
2015-May-15 09:26N 31°50' W 014°29'1311.4
2015-May-15 08:18N 32°02' W 014°25'811.1
2015-May-15 07:33N 32°10' W 014°23'1111.0
2015-May-15 06:33N 32°21' W 014°20'1111.0
2015-May-15 05:33N 32°32' W 014°17'1111.3
2015-May-15 04:33N 32°43' W 014°13'1111.3
2015-May-15 03:33N 32°53' W 014°10'1211.3
2015-May-15 02:32N 33°05' W 014°07'1511.7
2015-May-15 01:17N 33°19' W 014°03'911.8
2015-May-15 00:29N 33°28' W 014°00'20211.8
2015-May-14 07:19N 36°44' W 012°59'2212.0
2015-May-14 05:29N 37°05' W 012°52'1111.9
2015-May-14 04:32N 37°16' W 012°49'1511.8
2015-May-14 03:15N 37°31' W 012°45'2411.9
2015-May-14 01:14N 37°54' W 012°37'12411.6
2015-May-13 14:29N 39°55' W 011°58'  
2015-May-10 22:28N 49°56' W 003°05'1011.1
2015-May-10 21:33N 50°00' W 002°50'1212.2
2015-May-10 20:33N 50°03' W 002°32'1313.3
2015-May-10 19:33N 50°07' W 002°12'3614.7
2015-May-10 17:07N 50°17' W 001°18'814.2
2015-May-10 16:34N 50°19' W 001°06'1313.1
2015-May-10 15:34N 50°22' W 000°46'1211.7
2015-May-10 14:34N 50°25' W 000°29'1211.0
2015-May-10 13:30N 50°28' W 000°11'1210.6
2015-May-10 12:22N 50°31' E 000°07'910.9
2015-May-10 11:34N 50°34' E 000°20'1211.8
2015-May-10 10:34N 50°38' E 000°38'1313.0
2015-May-10 09:33N 50°46' E 000°54'1413.1
2015-May-10 08:28N 50°56' E 001°10'1112.7
2015-May-10 07:33N 51°03' E 001°25'1111.2
2015-May-10 06:33N 51°10' E 001°39'1010.0
2015-May-10 05:34N 51°17' E 001°49'1010.3
2015-May-10 04:34N 51°27' E 001°56'1110.8
2015-May-10 03:33N 51°34' E 002°08'1211.9
2015-May-10 02:34N 51°43' E 002°21'4912.0
2015-May-09 22:30N 52°03' E 003°33'1212.0
2015-May-09 21:33N 52°03' E 003°52'9 9.1
2015-May-09 20:34N 51°59' E 004°05'6 4.9
2015-May-09 19:22N 51°55' E 004°13'0 0.0
2015-May-09 18:28N 51°55' E 004°13'0 0.0
2015-May-09 17:31N 51°55' E 004°13'0 0.0
2015-May-09 16:31N 51°55' E 004°13'0 0.0
2015-May-09 15:28N 51°55' E 004°13'0 0.0
2015-May-09 14:31N 51°55' E 004°13'0 0.0
2015-May-09 13:31N 51°55' E 004°13'0 0.0
2015-May-09 12:22N 51°55' E 004°13'0 0.0
2015-May-09 11:28N 51°55' E 004°13'0 0.0
2015-May-09 10:28N 51°55' E 004°13'0 0.0
2015-May-09 09:31N 51°55' E 004°13'0 0.0
2015-May-09 08:31N 51°55' E 004°13'0 0.0
2015-May-09 07:31N 51°55' E 004°13'0 0.0
2015-May-09 06:31N 51°55' E 004°13'0 0.0
2015-May-09 05:34N 51°55' E 004°13'0 0.0
2015-May-09 04:33N 51°55' E 004°13'0 0.0
2015-May-09 03:31N 51°55' E 004°13'0 0.0
2015-May-09 02:33N 51°55' E 004°13'0 0.0
2015-May-09 01:33N 51°55' E 004°13'0 0.0
2015-May-09 00:33N 51°55' E 004°13'0 0.0
2015-May-08 23:30N 51°55' E 004°13'0 0.0
2015-May-08 22:33N 51°55' E 004°13'0 0.0
2015-May-08 21:33N 51°55' E 004°13'  
Track history (hours):
 
Tides and Currents Weather Stations Pressure Air Temp Water Temp Dewpoint Dewpoint Depression Visibility Wind Speed Wind Dir Waves Ship Positions

Romoe Maersk

Last reported at 2015-May-18 21:21 UTC. Time now 2015-Jul-28 10:19 UTC.
Position N 20°44' W 017°01'.
Warning: this ship's position is months out of date.

Length 171 m; draft 10.6 m.

Type: Ship. MMSI: 220209000.

Date/timePositionNaut miles runAvg speedWind from/ knotsBaromVisibWave heightAir tempDewpointWater temp
2015-May-18 21:21N 20°44' W 017°01'0 0.0
2015-May-17 23:26N 20°44' W 017°01'37 7.6
2015-May-17 18:33N 21°10' W 017°29'1512.4
2015-May-17 17:22N 21°24' W 017°33'3812.2
2015-May-17 14:14N 22°03' W 017°29'1412.0
2015-May-17 13:04N 22°16' W 017°26'611.6
2015-May-17 12:33N 22°22' W 017°25'5711.4
2015-May-17 07:33N 23°19' W 017°15'2611.2
2015-May-17 05:17N 23°44' W 017°11'36011.5
2015-May-15 22:07N 29°27' W 015°11'1111.7
2015-May-15 21:13N 29°38' W 015°08'811.7
2015-May-15 20:31N 29°45' W 015°06'1212.0
2015-May-15 19:33N 29°57' W 015°02'1211.6
2015-May-15 18:33N 30°08' W 014°59'1111.4
2015-May-15 17:33N 30°19' W 014°56'1211.6
2015-May-15 16:32N 30°30' W 014°52'1211.8
2015-May-15 15:30N 30°42' W 014°49'1111.6
2015-May-15 14:33N 30°53' W 014°46'1111.4
2015-May-15 13:33N 31°04' W 014°43'1711.2
2015-May-15 12:03N 31°20' W 014°38'711.2
2015-May-15 11:27N 31°27' W 014°36'1011.7
2015-May-15 10:33N 31°37' W 014°33'1311.7
2015-May-15 09:26N 31°50' W 014°29'1311.4
2015-May-15 08:18N 32°02' W 014°25'811.1
2015-May-15 07:33N 32°10' W 014°23'1111.0
2015-May-15 06:33N 32°21' W 014°20'1111.0
2015-May-15 05:33N 32°32' W 014°17'1111.3
2015-May-15 04:33N 32°43' W 014°13'1111.3
2015-May-15 03:33N 32°53' W 014°10'1211.3
2015-May-15 02:32N 33°05' W 014°07'1511.7
2015-May-15 01:17N 33°19' W 014°03'911.8
2015-May-15 00:29N 33°28' W 014°00'20211.8
2015-May-14 07:19N 36°44' W 012°59'2212.0
2015-May-14 05:29N 37°05' W 012°52'1111.9
2015-May-14 04:32N 37°16' W 012°49'1511.8
2015-May-14 03:15N 37°31' W 012°45'2411.9
2015-May-14 01:14N 37°54' W 012°37'12411.6
2015-May-13 14:29N 39°55' W 011°58'  
2015-May-10 22:28N 49°56' W 003°05'1011.1
2015-May-10 21:33N 50°00' W 002°50'1212.2
2015-May-10 20:33N 50°03' W 002°32'1313.3
2015-May-10 19:33N 50°07' W 002°12'3614.7
2015-May-10 17:07N 50°17' W 001°18'814.2
2015-May-10 16:34N 50°19' W 001°06'1313.1
2015-May-10 15:34N 50°22' W 000°46'1211.7
2015-May-10 14:34N 50°25' W 000°29'1211.0
2015-May-10 13:30N 50°28' W 000°11'1210.6
2015-May-10 12:22N 50°31' E 000°07'910.9
2015-May-10 11:34N 50°34' E 000°20'1211.8
2015-May-10 10:34N 50°38' E 000°38'1313.0
2015-May-10 09:33N 50°46' E 000°54'1413.1
2015-May-10 08:28N 50°56' E 001°10'1112.7
2015-May-10 07:33N 51°03' E 001°25'1111.2
2015-May-10 06:33N 51°10' E 001°39'1010.0
2015-May-10 05:34N 51°17' E 001°49'1010.3
2015-May-10 04:34N 51°27' E 001°56'1110.8
2015-May-10 03:33N 51°34' E 002°08'1211.9
2015-May-10 02:34N 51°43' E 002°21'4912.0
2015-May-09 22:30N 52°03' E 003°33'1212.0
2015-May-09 21:33N 52°03' E 003°52'9 9.1
2015-May-09 20:34N 51°59' E 004°05'6 4.9
2015-May-09 19:22N 51°55' E 004°13'0 0.0
2015-May-09 18:28N 51°55' E 004°13'0 0.0
2015-May-09 17:31N 51°55' E 004°13'0 0.0
2015-May-09 16:31N 51°55' E 004°13'0 0.0
2015-May-09 15:28N 51°55' E 004°13'0 0.0
2015-May-09 14:31N 51°55' E 004°13'0 0.0
2015-May-09 13:31N 51°55' E 004°13'0 0.0
2015-May-09 12:22N 51°55' E 004°13'0 0.0
2015-May-09 11:28N 51°55' E 004°13'0 0.0
2015-May-09 10:28N 51°55' E 004°13'0 0.0
2015-May-09 09:31N 51°55' E 004°13'0 0.0
2015-May-09 08:31N 51°55' E 004°13'0 0.0
2015-May-09 07:31N 51°55' E 004°13'0 0.0
2015-May-09 06:31N 51°55' E 004°13'0 0.0
2015-May-09 05:34N 51°55' E 004°13'0 0.0
2015-May-09 04:33N 51°55' E 004°13'0 0.0
2015-May-09 03:31N 51°55' E 004°13'0 0.0
2015-May-09 02:33N 51°55' E 004°13'0 0.0
2015-May-09 01:33N 51°55' E 004°13'0 0.0
2015-May-09 00:33N 51°55' E 004°13'0 0.0
2015-May-08 23:30N 51°55' E 004°13'0 0.0
2015-May-08 22:33N 51°55' E 004°13'0 0.0
2015-May-08 21:33N 51°55' E 004°13'  

Dump ship's entire track history